sensor_id;sensor_type;location;lat;lon;timestamp;P1;durP1;ratioP1;P2;durP2;ratioP2
45692;SDS011;31402;44.752;-0.374;2022-12-18T00:01:56;12.43;;;8.00;;
45692;SDS011;31402;44.752;-0.374;2022-12-18T00:04:24;10.90;;;7.67;;
45692;SDS011;31402;44.752;-0.374;2022-12-18T00:06:51;12.40;;;8.37;;
45692;SDS011;31402;44.752;-0.374;2022-12-18T00:09:17;12.83;;;8.00;;
45692;SDS011;31402;44.752;-0.374;2022-12-18T00:11:44;10.90;;;7.80;;
45692;SDS011;31402;44.752;-0.374;2022-12-18T00:14:13;12.40;;;7.90;;
45692;SDS011;31402;44.752;-0.374;2022-12-18T00:16:39;12.80;;;8.30;;
45692;SDS011;31402;44.752;-0.374;2022-12-18T00:19:08;14.13;;;8.23;;
45692;SDS011;31402;44.752;-0.374;2022-12-18T00:21:35;10.87;;;8.00;;
45692;SDS011;31402;44.752;-0.374;2022-12-18T00:24:01;11.83;;;8.30;;
45692;SDS011;31402;44.752;-0.374;2022-12-18T00:26:30;12.43;;;8.57;;
45692;SDS011;31402;44.752;-0.374;2022-12-18T00:28:58;11.90;;;8.43;;
45692;SDS011;31402;44.752;-0.374;2022-12-18T00:31:25;11.43;;;8.40;;
45692;SDS011;31402;44.752;-0.374;2022-12-18T00:33:53;13.50;;;9.00;;
45692;SDS011;31402;44.752;-0.374;2022-12-18T00:36:22;12.37;;;8.90;;
45692;SDS011;31402;44.752;-0.374;2022-12-18T00:38:49;12.80;;;9.00;;
45692;SDS011;31402;44.752;-0.374;2022-12-18T00:41:16;12.47;;;8.33;;
45692;SDS011;31402;44.752;-0.374;2022-12-18T00:44:02;13.33;;;9.67;;
45692;SDS011;31402;44.752;-0.374;2022-12-18T00:46:29;12.43;;;9.10;;
45692;SDS011;31402;44.752;-0.374;2022-12-18T00:48:55;12.63;;;8.90;;
45692;SDS011;31402;44.752;-0.374;2022-12-18T00:51:22;13.17;;;9.00;;
45692;SDS011;31402;44.752;-0.374;2022-12-18T00:53:48;14.53;;;9.17;;
45692;SDS011;31402;44.752;-0.374;2022-12-18T00:56:14;13.57;;;9.50;;
45692;SDS011;31402;44.752;-0.374;2022-12-18T00:58:40;14.10;;;9.63;;
45692;SDS011;31402;44.752;-0.374;2022-12-18T01:01:06;16.03;;;10.23;;
45692;SDS011;31402;44.752;-0.374;2022-12-18T01:03:32;15.23;;;10.37;;
45692;SDS011;31402;44.752;-0.374;2022-12-18T01:05:58;15.27;;;10.33;;
45692;SDS011;31402;44.752;-0.374;2022-12-18T01:08:23;15.27;;;10.47;;
45692;SDS011;31402;44.752;-0.374;2022-12-18T01:10:49;16.23;;;10.90;;
45692;SDS011;31402;44.752;-0.374;2022-12-18T01:13:15;14.73;;;10.50;;
45692;SDS011;31402;44.752;-0.374;2022-12-18T01:15:47;16.60;;;10.70;;
45692;SDS011;31402;44.752;-0.374;2022-12-18T01:18:16;17.50;;;10.87;;
45692;SDS011;31402;44.752;-0.374;2022-12-18T01:20:42;17.73;;;11.10;;
45692;SDS011;31402;44.752;-0.374;2022-12-18T01:23:08;16.93;;;11.70;;
45692;SDS011;31402;44.752;-0.374;2022-12-18T01:25:35;18.97;;;12.60;;
45692;SDS011;31402;44.752;-0.374;2022-12-18T01:28:01;17.63;;;11.70;;
45692;SDS011;31402;44.752;-0.374;2022-12-18T01:30:27;17.67;;;12.27;;
45692;SDS011;31402;44.752;-0.374;2022-12-18T01:32:53;18.03;;;12.50;;
45692;SDS011;31402;44.752;-0.374;2022-12-18T01:35:19;17.53;;;11.57;;
45692;SDS011;31402;44.752;-0.374;2022-12-18T01:37:45;19.60;;;12.57;;
45692;SDS011;31402;44.752;-0.374;2022-12-18T01:40:10;17.07;;;11.87;;
45692;SDS011;31402;44.752;-0.374;2022-12-18T01:42:37;20.57;;;12.23;;
45692;SDS011;31402;44.752;-0.374;2022-12-18T01:52:56;21.40;;;13.17;;
45692;SDS011;31402;44.752;-0.374;2022-12-18T01:55:29;21.30;;;13.53;;
45692;SDS011;31402;44.752;-0.374;2022-12-18T01:58:00;20.40;;;13.60;;
45692;SDS011;31402;44.752;-0.374;2022-12-18T02:00:26;21.10;;;13.60;;
45692;SDS011;31402;44.752;-0.374;2022-12-18T02:02:53;18.83;;;12.60;;
45692;SDS011;31402;44.752;-0.374;2022-12-18T02:08:10;20.87;;;13.67;;
45692;SDS011;31402;44.752;-0.374;2022-12-18T02:10:46;21.83;;;14.10;;
45692;SDS011;31402;44.752;-0.374;2022-12-18T02:13:38;20.43;;;14.23;;
45692;SDS011;31402;44.752;-0.374;2022-12-18T02:18:45;21.53;;;14.43;;
45692;SDS011;31402;44.752;-0.374;2022-12-18T02:21:27;22.43;;;14.67;;
45692;SDS011;31402;44.752;-0.374;2022-12-18T02:26:59;24.77;;;15.33;;
45692;SDS011;31402;44.752;-0.374;2022-12-18T02:29:33;23.70;;;14.00;;
45692;SDS011;31402;44.752;-0.374;2022-12-18T02:32:04;26.60;;;15.77;;
45692;SDS011;31402;44.752;-0.374;2022-12-18T02:34:35;32.23;;;14.57;;
45692;SDS011;31402;44.752;-0.374;2022-12-18T02:37:04;68.27;;;15.90;;
45692;SDS011;31402;44.752;-0.374;2022-12-18T02:39:33;33.63;;;13.80;;
45692;SDS011;31402;44.752;-0.374;2022-12-18T02:42:01;63.60;;;14.27;;
45692;SDS011;31402;44.752;-0.374;2022-12-18T02:44:32;35.63;;;13.20;;
45692;SDS011;31402;44.752;-0.374;2022-12-18T02:47:08;32.70;;;13.77;;
45692;SDS011;31402;44.752;-0.374;2022-12-18T02:54:57;90.67;;;15.17;;
45692;SDS011;31402;44.752;-0.374;2022-12-18T03:00:23;60.00;;;13.50;;
45692;SDS011;31402;44.752;-0.374;2022-12-18T03:05:30;49.53;;;13.90;;
45692;SDS011;31402;44.752;-0.374;2022-12-18T03:08:16;73.57;;;14.50;;
45692;SDS011;31402;44.752;-0.374;2022-12-18T03:10:47;109.23;;;15.07;;
45692;SDS011;31402;44.752;-0.374;2022-12-18T03:13:19;58.30;;;13.67;;
45692;SDS011;31402;44.752;-0.374;2022-12-18T03:15:51;309.97;;;21.17;;
45692;SDS011;31402;44.752;-0.374;2022-12-18T03:18:24;60.00;;;14.67;;
45692;SDS011;31402;44.752;-0.374;2022-12-18T03:20:55;77.23;;;14.03;;
45692;SDS011;31402;44.752;-0.374;2022-12-18T03:23:25;48.77;;;12.83;;
45692;SDS011;31402;44.752;-0.374;2022-12-18T03:25:57;65.67;;;13.23;;
45692;SDS011;31402;44.752;-0.374;2022-12-18T03:28:25;65.97;;;13.20;;
45692;SDS011;31402;44.752;-0.374;2022-12-18T03:30:56;47.23;;;12.40;;
45692;SDS011;31402;44.752;-0.374;2022-12-18T03:33:26;109.90;;;13.93;;
45692;SDS011;31402;44.752;-0.374;2022-12-18T03:35:56;135.60;;;14.70;;
45692;SDS011;31402;44.752;-0.374;2022-12-18T03:38:22;71.83;;;12.57;;
45692;SDS011;31402;44.752;-0.374;2022-12-18T03:44:15;39.37;;;11.27;;
45692;SDS011;31402;44.752;-0.374;2022-12-18T03:46:33;142.33;;;14.50;;
45692;SDS011;31402;44.752;-0.374;2022-12-18T03:52:21;43.07;;;10.20;;
45692;SDS011;31402;44.752;-0.374;2022-12-18T03:54:54;34.63;;;9.57;;
45692;SDS011;31402;44.752;-0.374;2022-12-18T03:57:23;77.93;;;11.63;;
45692;SDS011;31402;44.752;-0.374;2022-12-18T03:59:55;108.33;;;11.97;;
45692;SDS011;31402;44.752;-0.374;2022-12-18T04:02:24;82.63;;;11.03;;
45692;SDS011;31402;44.752;-0.374;2022-12-18T04:04:52;35.17;;;9.93;;
45692;SDS011;31402;44.752;-0.374;2022-12-18T04:07:20;54.57;;;9.43;;
45692;SDS011;31402;44.752;-0.374;2022-12-18T04:09:48;74.17;;;10.60;;
45692;SDS011;31402;44.752;-0.374;2022-12-18T04:12:16;40.07;;;8.83;;
45692;SDS011;31402;44.752;-0.374;2022-12-18T04:14:41;105.83;;;11.23;;
45692;SDS011;31402;44.752;-0.374;2022-12-18T04:17:07;107.23;;;11.90;;
45692;SDS011;31402;44.752;-0.374;2022-12-18T04:19:33;40.77;;;8.73;;
45692;SDS011;31402;44.752;-0.374;2022-12-18T04:21:59;73.97;;;9.47;;
45692;SDS011;31402;44.752;-0.374;2022-12-18T04:24:24;93.57;;;10.70;;
45692;SDS011;31402;44.752;-0.374;2022-12-18T04:26:50;182.80;;;13.40;;
45692;SDS011;31402;44.752;-0.374;2022-12-18T04:29:16;54.57;;;8.73;;
45692;SDS011;31402;44.752;-0.374;2022-12-18T04:31:42;35.97;;;7.80;;
45692;SDS011;31402;44.752;-0.374;2022-12-18T04:34:07;178.40;;;12.30;;
45692;SDS011;31402;44.752;-0.374;2022-12-18T04:36:33;108.23;;;10.07;;
45692;SDS011;31402;44.752;-0.374;2022-12-18T04:38:59;50.53;;;8.70;;
45692;SDS011;31402;44.752;-0.374;2022-12-18T04:41:24;145.27;;;11.50;;
45692;SDS011;31402;44.752;-0.374;2022-12-18T04:43:50;150.90;;;12.03;;
45692;SDS011;31402;44.752;-0.374;2022-12-18T04:46:16;73.67;;;8.90;;
45692;SDS011;31402;44.752;-0.374;2022-12-18T04:48:44;67.33;;;8.17;;
45692;SDS011;31402;44.752;-0.374;2022-12-18T04:51:10;120.73;;;10.57;;
45692;SDS011;31402;44.752;-0.374;2022-12-18T04:53:36;141.10;;;10.40;;
45692;SDS011;31402;44.752;-0.374;2022-12-18T04:56:03;65.03;;;8.37;;
45692;SDS011;31402;44.752;-0.374;2022-12-18T04:58:30;71.80;;;8.17;;
45692;SDS011;31402;44.752;-0.374;2022-12-18T05:00:56;163.73;;;11.83;;
45692;SDS011;31402;44.752;-0.374;2022-12-18T05:03:21;66.37;;;8.43;;
45692;SDS011;31402;44.752;-0.374;2022-12-18T05:05:50;203.57;;;12.63;;
45692;SDS011;31402;44.752;-0.374;2022-12-18T05:08:16;60.87;;;7.90;;
45692;SDS011;31402;44.752;-0.374;2022-12-18T05:10:42;152.80;;;10.83;;
45692;SDS011;31402;44.752;-0.374;2022-12-18T05:13:08;41.53;;;6.73;;
45692;SDS011;31402;44.752;-0.374;2022-12-18T05:15:34;50.53;;;7.53;;
45692;SDS011;31402;44.752;-0.374;2022-12-18T05:18:00;111.13;;;9.27;;
45692;SDS011;31402;44.752;-0.374;2022-12-18T05:20:26;63.40;;;8.60;;
45692;SDS011;31402;44.752;-0.374;2022-12-18T05:22:53;102.67;;;8.73;;
45692;SDS011;31402;44.752;-0.374;2022-12-18T05:25:19;140.60;;;10.73;;
45692;SDS011;31402;44.752;-0.374;2022-12-18T05:27:46;130.97;;;10.13;;
45692;SDS011;31402;44.752;-0.374;2022-12-18T05:30:12;78.17;;;7.73;;
45692;SDS011;31402;44.752;-0.374;2022-12-18T05:32:39;80.93;;;8.03;;
45692;SDS011;31402;44.752;-0.374;2022-12-18T05:35:05;111.37;;;9.03;;
45692;SDS011;31402;44.752;-0.374;2022-12-18T05:37:33;83.60;;;9.03;;
45692;SDS011;31402;44.752;-0.374;2022-12-18T05:40:00;160.67;;;11.07;;
45692;SDS011;31402;44.752;-0.374;2022-12-18T05:42:26;184.33;;;12.97;;
45692;SDS011;31402;44.752;-0.374;2022-12-18T05:44:51;52.93;;;7.40;;
45692;SDS011;31402;44.752;-0.374;2022-12-18T05:47:17;87.60;;;9.10;;
45692;SDS011;31402;44.752;-0.374;2022-12-18T05:49:43;20.40;;;7.20;;
45692;SDS011;31402;44.752;-0.374;2022-12-18T05:52:09;86.57;;;9.17;;
45692;SDS011;31402;44.752;-0.374;2022-12-18T05:54:35;75.43;;;9.13;;
45692;SDS011;31402;44.752;-0.374;2022-12-18T05:57:00;40.60;;;7.87;;
45692;SDS011;31402;44.752;-0.374;2022-12-18T05:59:26;104.50;;;10.90;;
45692;SDS011;31402;44.752;-0.374;2022-12-18T06:01:52;75.40;;;9.67;;
45692;SDS011;31402;44.752;-0.374;2022-12-18T06:04:18;91.87;;;9.80;;
45692;SDS011;31402;44.752;-0.374;2022-12-18T06:06:43;271.80;;;15.67;;
45692;SDS011;31402;44.752;-0.374;2022-12-18T06:09:09;46.73;;;8.20;;
45692;SDS011;31402;44.752;-0.374;2022-12-18T06:11:36;34.93;;;7.80;;
45692;SDS011;31402;44.752;-0.374;2022-12-18T06:14:03;62.23;;;8.87;;
45692;SDS011;31402;44.752;-0.374;2022-12-18T06:16:30;73.10;;;10.17;;
45692;SDS011;31402;44.752;-0.374;2022-12-18T06:18:59;70.07;;;10.27;;
45692;SDS011;31402;44.752;-0.374;2022-12-18T06:21:27;30.93;;;8.20;;
45692;SDS011;31402;44.752;-0.374;2022-12-18T06:23:53;37.60;;;8.77;;
45692;SDS011;31402;44.752;-0.374;2022-12-18T06:26:19;30.37;;;7.77;;
45692;SDS011;31402;44.752;-0.374;2022-12-18T06:28:45;82.43;;;10.57;;
45692;SDS011;31402;44.752;-0.374;2022-12-18T06:31:11;41.33;;;9.07;;
45692;SDS011;31402;44.752;-0.374;2022-12-18T06:33:37;46.03;;;9.43;;
45692;SDS011;31402;44.752;-0.374;2022-12-18T06:36:04;31.10;;;8.53;;
45692;SDS011;31402;44.752;-0.374;2022-12-18T06:38:35;25.53;;;8.50;;
45692;SDS011;31402;44.752;-0.374;2022-12-18T06:41:06;43.47;;;9.23;;
45692;SDS011;31402;44.752;-0.374;2022-12-18T06:43:33;40.13;;;8.80;;
45692;SDS011;31402;44.752;-0.374;2022-12-18T06:45:59;54.07;;;8.57;;
45692;SDS011;31402;44.752;-0.374;2022-12-18T06:48:25;36.67;;;8.10;;
45692;SDS011;31402;44.752;-0.374;2022-12-18T06:50:52;25.87;;;9.80;;
45692;SDS011;31402;44.752;-0.374;2022-12-18T06:53:17;27.63;;;9.03;;
45692;SDS011;31402;44.752;-0.374;2022-12-18T06:55:43;34.53;;;7.90;;
45692;SDS011;31402;44.752;-0.374;2022-12-18T06:58:09;31.40;;;9.67;;
45692;SDS011;31402;44.752;-0.374;2022-12-18T07:00:35;23.57;;;8.63;;
45692;SDS011;31402;44.752;-0.374;2022-12-18T07:03:00;19.40;;;8.83;;
45692;SDS011;31402;44.752;-0.374;2022-12-18T07:05:26;18.63;;;10.13;;
45692;SDS011;31402;44.752;-0.374;2022-12-18T07:07:52;18.67;;;8.90;;
45692;SDS011;31402;44.752;-0.374;2022-12-18T07:10:18;17.37;;;9.90;;
45692;SDS011;31402;44.752;-0.374;2022-12-18T07:12:44;18.30;;;9.33;;
45692;SDS011;31402;44.752;-0.374;2022-12-18T07:15:10;24.07;;;8.67;;
45692;SDS011;31402;44.752;-0.374;2022-12-18T07:17:36;18.47;;;7.83;;
45692;SDS011;31402;44.752;-0.374;2022-12-18T07:20:01;16.30;;;8.60;;
45692;SDS011;31402;44.752;-0.374;2022-12-18T07:22:28;22.67;;;8.40;;
45692;SDS011;31402;44.752;-0.374;2022-12-18T07:24:54;14.63;;;8.47;;
45692;SDS011;31402;44.752;-0.374;2022-12-18T07:27:20;14.60;;;8.80;;
45692;SDS011;31402;44.752;-0.374;2022-12-18T07:29:46;22.40;;;8.93;;
45692;SDS011;31402;44.752;-0.374;2022-12-18T07:32:12;14.57;;;8.50;;
45692;SDS011;31402;44.752;-0.374;2022-12-18T07:34:38;15.53;;;9.37;;
45692;SDS011;31402;44.752;-0.374;2022-12-18T07:37:03;13.27;;;8.70;;
45692;SDS011;31402;44.752;-0.374;2022-12-18T07:39:29;12.67;;;8.30;;
45692;SDS011;31402;44.752;-0.374;2022-12-18T07:41:55;14.10;;;8.80;;
45692;SDS011;31402;44.752;-0.374;2022-12-18T07:44:40;14.20;;;8.80;;
45692;SDS011;31402;44.752;-0.374;2022-12-18T07:47:05;13.20;;;8.90;;
45692;SDS011;31402;44.752;-0.374;2022-12-18T07:49:31;14.73;;;9.50;;
45692;SDS011;31402;44.752;-0.374;2022-12-18T07:51:57;14.80;;;8.90;;
45692;SDS011;31402;44.752;-0.374;2022-12-18T07:54:23;14.50;;;9.27;;
45692;SDS011;31402;44.752;-0.374;2022-12-18T07:56:50;14.07;;;8.97;;
45692;SDS011;31402;44.752;-0.374;2022-12-18T07:59:17;14.00;;;9.40;;
45692;SDS011;31402;44.752;-0.374;2022-12-18T08:01:43;14.23;;;9.80;;
45692;SDS011;31402;44.752;-0.374;2022-12-18T08:04:09;14.70;;;9.60;;
45692;SDS011;31402;44.752;-0.374;2022-12-18T08:06:35;14.30;;;9.20;;
45692;SDS011;31402;44.752;-0.374;2022-12-18T08:09:00;14.03;;;9.27;;
45692;SDS011;31402;44.752;-0.374;2022-12-18T08:11:27;13.77;;;9.37;;
45692;SDS011;31402;44.752;-0.374;2022-12-18T08:13:53;14.57;;;9.47;;
45692;SDS011;31402;44.752;-0.374;2022-12-18T08:16:20;15.07;;;10.13;;
45692;SDS011;31402;44.752;-0.374;2022-12-18T08:18:47;13.50;;;8.73;;
45692;SDS011;31402;44.752;-0.374;2022-12-18T08:21:15;13.60;;;9.30;;
45692;SDS011;31402;44.752;-0.374;2022-12-18T08:23:43;15.30;;;9.83;;
45692;SDS011;31402;44.752;-0.374;2022-12-18T08:26:10;12.63;;;8.63;;
45692;SDS011;31402;44.752;-0.374;2022-12-18T08:28:36;14.00;;;9.27;;
45692;SDS011;31402;44.752;-0.374;2022-12-18T08:31:03;13.03;;;8.93;;
45692;SDS011;31402;44.752;-0.374;2022-12-18T08:33:29;12.43;;;8.73;;
45692;SDS011;31402;44.752;-0.374;2022-12-18T08:35:54;11.77;;;8.70;;
45692;SDS011;31402;44.752;-0.374;2022-12-18T08:38:20;13.23;;;8.97;;
45692;SDS011;31402;44.752;-0.374;2022-12-18T08:40:47;11.57;;;7.83;;
45692;SDS011;31402;44.752;-0.374;2022-12-18T08:43:13;11.17;;;7.90;;
45692;SDS011;31402;44.752;-0.374;2022-12-18T08:45:57;12.50;;;8.53;;
45692;SDS011;31402;44.752;-0.374;2022-12-18T08:48:23;12.00;;;7.83;;
45692;SDS011;31402;44.752;-0.374;2022-12-18T08:50:55;9.90;;;7.33;;
45692;SDS011;31402;44.752;-0.374;2022-12-18T08:53:22;11.63;;;8.30;;
45692;SDS011;31402;44.752;-0.374;2022-12-18T08:55:47;11.57;;;8.07;;
45692;SDS011;31402;44.752;-0.374;2022-12-18T08:58:13;11.67;;;8.20;;
45692;SDS011;31402;44.752;-0.374;2022-12-18T09:00:39;12.00;;;8.47;;
45692;SDS011;31402;44.752;-0.374;2022-12-18T09:03:04;11.73;;;8.03;;
45692;SDS011;31402;44.752;-0.374;2022-12-18T09:05:30;12.03;;;8.10;;
45692;SDS011;31402;44.752;-0.374;2022-12-18T09:07:56;11.23;;;7.50;;
45692;SDS011;31402;44.752;-0.374;2022-12-18T09:10:22;10.47;;;7.50;;
45692;SDS011;31402;44.752;-0.374;2022-12-18T09:12:47;11.30;;;7.23;;
45692;SDS011;31402;44.752;-0.374;2022-12-18T09:15:13;10.13;;;7.10;;
45692;SDS011;31402;44.752;-0.374;2022-12-18T09:17:39;10.13;;;7.37;;
45692;SDS011;31402;44.752;-0.374;2022-12-18T09:20:05;11.57;;;6.63;;
45692;SDS011;31402;44.752;-0.374;2022-12-18T09:22:31;9.73;;;6.70;;
45692;SDS011;31402;44.752;-0.374;2022-12-18T09:24:57;11.83;;;6.80;;
45692;SDS011;31402;44.752;-0.374;2022-12-18T09:27:22;8.80;;;6.07;;
45692;SDS011;31402;44.752;-0.374;2022-12-18T09:29:48;9.43;;;6.90;;
45692;SDS011;31402;44.752;-0.374;2022-12-18T09:32:14;9.77;;;7.23;;
45692;SDS011;31402;44.752;-0.374;2022-12-18T09:34:40;9.57;;;6.63;;
45692;SDS011;31402;44.752;-0.374;2022-12-18T09:37:05;11.80;;;7.30;;
45692;SDS011;31402;44.752;-0.374;2022-12-18T09:39:31;10.70;;;7.20;;
45692;SDS011;31402;44.752;-0.374;2022-12-18T09:41:57;10.27;;;6.70;;
45692;SDS011;31402;44.752;-0.374;2022-12-18T09:44:57;9.40;;;6.60;;
45692;SDS011;31402;44.752;-0.374;2022-12-18T09:47:25;9.57;;;6.60;;
45692;SDS011;31402;44.752;-0.374;2022-12-18T09:50:00;10.07;;;6.57;;
45692;SDS011;31402;44.752;-0.374;2022-12-18T09:52:31;9.73;;;6.40;;
45692;SDS011;31402;44.752;-0.374;2022-12-18T09:57:42;10.33;;;6.70;;
45692;SDS011;31402;44.752;-0.374;2022-12-18T10:00:20;8.97;;;6.27;;
45692;SDS011;31402;44.752;-0.374;2022-12-18T10:02:47;9.33;;;6.10;;
45692;SDS011;31402;44.752;-0.374;2022-12-18T10:05:17;9.37;;;6.77;;
45692;SDS011;31402;44.752;-0.374;2022-12-18T10:15:35;9.20;;;6.20;;
45692;SDS011;31402;44.752;-0.374;2022-12-18T10:18:50;9.03;;;6.37;;
45692;SDS011;31402;44.752;-0.374;2022-12-18T10:21:34;7.93;;;5.60;;
45692;SDS011;31402;44.752;-0.374;2022-12-18T10:29:41;9.17;;;6.07;;
45692;SDS011;31402;44.752;-0.374;2022-12-18T10:32:13;8.50;;;5.60;;
45692;SDS011;31402;44.752;-0.374;2022-12-18T10:34:47;9.70;;;5.57;;
45692;SDS011;31402;44.752;-0.374;2022-12-18T10:37:18;7.77;;;5.63;;
45692;SDS011;31402;44.752;-0.374;2022-12-18T10:40:12;8.10;;;5.40;;
45692;SDS011;31402;44.752;-0.374;2022-12-18T10:42:41;8.83;;;5.70;;
45692;SDS011;31402;44.752;-0.374;2022-12-18T10:45:15;8.33;;;5.07;;
45692;SDS011;31402;44.752;-0.374;2022-12-18T10:47:45;9.20;;;5.23;;
45692;SDS011;31402;44.752;-0.374;2022-12-18T10:52:56;7.27;;;4.97;;
45692;SDS011;31402;44.752;-0.374;2022-12-18T10:55:24;6.80;;;4.60;;
45692;SDS011;31402;44.752;-0.374;2022-12-18T10:58:20;8.03;;;5.10;;
45692;SDS011;31402;44.752;-0.374;2022-12-18T11:01:01;8.13;;;5.50;;
45692;SDS011;31402;44.752;-0.374;2022-12-18T11:06:14;7.10;;;4.70;;
45692;SDS011;31402;44.752;-0.374;2022-12-18T11:11:49;13.77;;;6.67;;
45692;SDS011;31402;44.752;-0.374;2022-12-18T11:14:28;13.90;;;7.57;;
45692;SDS011;31402;44.752;-0.374;2022-12-18T11:16:57;13.03;;;7.07;;
45692;SDS011;31402;44.752;-0.374;2022-12-18T11:21:50;19.93;;;8.53;;
45692;SDS011;31402;44.752;-0.374;2022-12-18T11:24:50;7.83;;;4.73;;
45692;SDS011;31402;44.752;-0.374;2022-12-18T11:27:16;14.17;;;6.40;;
45692;SDS011;31402;44.752;-0.374;2022-12-18T11:29:43;7.90;;;4.97;;
45692;SDS011;31402;44.752;-0.374;2022-12-18T11:32:19;7.43;;;4.57;;
45692;SDS011;31402;44.752;-0.374;2022-12-18T11:37:48;6.57;;;4.40;;
45692;SDS011;31402;44.752;-0.374;2022-12-18T11:40:24;6.43;;;4.60;;
45692;SDS011;31402;44.752;-0.374;2022-12-18T11:43:15;7.27;;;4.40;;
45692;SDS011;31402;44.752;-0.374;2022-12-18T11:46:04;9.87;;;4.67;;
45692;SDS011;31402;44.752;-0.374;2022-12-18T11:48:46;6.10;;;4.30;;
45692;SDS011;31402;44.752;-0.374;2022-12-18T11:51:27;8.90;;;4.40;;
45692;SDS011;31402;44.752;-0.374;2022-12-18T11:54:13;6.13;;;4.23;;
45692;SDS011;31402;44.752;-0.374;2022-12-18T12:10:32;7.27;;;4.00;;
45692;SDS011;31402;44.752;-0.374;2022-12-18T12:21:15;6.83;;;3.97;;
45692;SDS011;31402;44.752;-0.374;2022-12-18T12:39:46;7.33;;;3.80;;
45692;SDS011;31402;44.752;-0.374;2022-12-18T12:42:15;6.07;;;3.70;;
45692;SDS011;31402;44.752;-0.374;2022-12-18T12:45:07;5.10;;;3.43;;
45692;SDS011;31402;44.752;-0.374;2022-12-18T12:47:47;5.00;;;3.40;;
45692;SDS011;31402;44.752;-0.374;2022-12-18T12:50:16;5.33;;;3.57;;
45692;SDS011;31402;44.752;-0.374;2022-12-18T12:52:45;5.17;;;3.60;;
45692;SDS011;31402;44.752;-0.374;2022-12-18T12:55:16;5.43;;;3.40;;
45692;SDS011;31402;44.752;-0.374;2022-12-18T12:57:53;5.10;;;3.27;;
45692;SDS011;31402;44.752;-0.374;2022-12-18T13:00:20;5.00;;;3.33;;
45692;SDS011;31402;44.752;-0.374;2022-12-18T13:05:26;5.17;;;3.30;;
45692;SDS011;31402;44.752;-0.374;2022-12-18T13:08:01;6.50;;;4.53;;
45692;SDS011;31402;44.752;-0.374;2022-12-18T13:10:33;30.23;;;11.60;;
45692;SDS011;31402;44.752;-0.374;2022-12-18T13:13:04;7.90;;;3.90;;
45692;SDS011;31402;44.752;-0.374;2022-12-18T13:15:44;12.23;;;6.17;;
45692;SDS011;31402;44.752;-0.374;2022-12-18T13:18:16;9.37;;;5.83;;
45692;SDS011;31402;44.752;-0.374;2022-12-18T13:20:49;5.40;;;3.60;;
45692;SDS011;31402;44.752;-0.374;2022-12-18T13:25:51;6.23;;;3.73;;
45692;SDS011;31402;44.752;-0.374;2022-12-18T13:29:05;8.97;;;5.37;;
45692;SDS011;31402;44.752;-0.374;2022-12-18T13:31:12;6.17;;;3.50;;
45692;SDS011;31402;44.752;-0.374;2022-12-18T13:34:12;5.30;;;3.60;;
45692;SDS011;31402;44.752;-0.374;2022-12-18T13:36:51;5.27;;;3.43;;
45692;SDS011;31402;44.752;-0.374;2022-12-18T13:41:50;7.17;;;3.60;;
45692;SDS011;31402;44.752;-0.374;2022-12-18T13:44:59;4.77;;;3.10;;
45692;SDS011;31402;44.752;-0.374;2022-12-18T13:47:32;4.53;;;3.00;;
45692;SDS011;31402;44.752;-0.374;2022-12-18T13:50:09;5.57;;;3.57;;
45692;SDS011;31402;44.752;-0.374;2022-12-18T13:52:48;7.43;;;3.60;;
45692;SDS011;31402;44.752;-0.374;2022-12-18T13:55:16;5.13;;;3.70;;
45692;SDS011;31402;44.752;-0.374;2022-12-18T13:57:45;5.93;;;3.40;;
45692;SDS011;31402;44.752;-0.374;2022-12-18T14:00:27;6.70;;;3.50;;
45692;SDS011;31402;44.752;-0.374;2022-12-18T14:02:54;5.73;;;3.07;;
45692;SDS011;31402;44.752;-0.374;2022-12-18T14:05:22;6.07;;;3.13;;
45692;SDS011;31402;44.752;-0.374;2022-12-18T14:07:47;5.03;;;3.20;;
45692;SDS011;31402;44.752;-0.374;2022-12-18T14:10:13;5.93;;;4.03;;
45692;SDS011;31402;44.752;-0.374;2022-12-18T14:12:44;10.40;;;6.77;;
45692;SDS011;31402;44.752;-0.374;2022-12-18T14:17:57;5.93;;;3.43;;
45692;SDS011;31402;44.752;-0.374;2022-12-18T14:20:24;6.50;;;3.40;;
45692;SDS011;31402;44.752;-0.374;2022-12-18T14:22:51;6.33;;;3.67;;
45692;SDS011;31402;44.752;-0.374;2022-12-18T14:25:21;4.63;;;3.43;;
45692;SDS011;31402;44.752;-0.374;2022-12-18T14:28:31;6.60;;;3.03;;
45692;SDS011;31402;44.752;-0.374;2022-12-18T14:30:39;6.33;;;3.10;;
45692;SDS011;31402;44.752;-0.374;2022-12-18T14:33:11;6.87;;;2.77;;
45692;SDS011;31402;44.752;-0.374;2022-12-18T14:35:58;3.87;;;2.70;;
45692;SDS011;31402;44.752;-0.374;2022-12-18T14:38:29;8.43;;;3.10;;
45692;SDS011;31402;44.752;-0.374;2022-12-18T14:41:00;5.10;;;3.20;;
45692;SDS011;31402;44.752;-0.374;2022-12-18T14:43:32;4.50;;;3.17;;
45692;SDS011;31402;44.752;-0.374;2022-12-18T14:46:01;7.00;;;3.43;;
45692;SDS011;31402;44.752;-0.374;2022-12-18T14:48:38;4.50;;;2.90;;
45692;SDS011;31402;44.752;-0.374;2022-12-18T14:53:41;4.80;;;3.10;;
45692;SDS011;31402;44.752;-0.374;2022-12-18T14:58:56;4.83;;;3.07;;
45692;SDS011;31402;44.752;-0.374;2022-12-18T15:01:37;6.87;;;3.50;;
45692;SDS011;31402;44.752;-0.374;2022-12-18T15:04:58;5.60;;;3.40;;
45692;SDS011;31402;44.752;-0.374;2022-12-18T15:10:09;6.73;;;3.33;;
45692;SDS011;31402;44.752;-0.374;2022-12-18T15:12:50;6.00;;;3.10;;
45692;SDS011;31402;44.752;-0.374;2022-12-18T15:18:01;5.57;;;3.57;;
45692;SDS011;31402;44.752;-0.374;2022-12-18T15:20:33;6.20;;;3.60;;
45692;SDS011;31402;44.752;-0.374;2022-12-18T15:25:45;6.00;;;3.60;;
45692;SDS011;31402;44.752;-0.374;2022-12-18T15:28:17;5.03;;;3.77;;
45692;SDS011;31402;44.752;-0.374;2022-12-18T15:31:01;9.17;;;4.93;;
45692;SDS011;31402;44.752;-0.374;2022-12-18T15:33:31;8.87;;;4.30;;
45692;SDS011;31402;44.752;-0.374;2022-12-18T15:36:07;7.50;;;4.80;;
45692;SDS011;31402;44.752;-0.374;2022-12-18T15:38:35;6.60;;;4.60;;
45692;SDS011;31402;44.752;-0.374;2022-12-18T15:41:01;6.67;;;3.90;;
45692;SDS011;31402;44.752;-0.374;2022-12-18T15:43:28;6.73;;;3.80;;
45692;SDS011;31402;44.752;-0.374;2022-12-18T15:46:01;9.23;;;3.97;;
45692;SDS011;31402;44.752;-0.374;2022-12-18T15:48:41;6.80;;;4.13;;
45692;SDS011;31402;44.752;-0.374;2022-12-18T15:51:11;8.43;;;3.93;;
45692;SDS011;31402;44.752;-0.374;2022-12-18T15:53:48;7.03;;;4.00;;
45692;SDS011;31402;44.752;-0.374;2022-12-18T15:56:16;5.87;;;3.80;;
45692;SDS011;31402;44.752;-0.374;2022-12-18T15:59:00;5.93;;;3.70;;
45692;SDS011;31402;44.752;-0.374;2022-12-18T16:01:28;6.67;;;3.60;;
45692;SDS011;31402;44.752;-0.374;2022-12-18T16:03:54;7.10;;;3.70;;
45692;SDS011;31402;44.752;-0.374;2022-12-18T16:06:21;6.67;;;3.77;;
45692;SDS011;31402;44.752;-0.374;2022-12-18T16:08:48;5.70;;;3.60;;
45692;SDS011;31402;44.752;-0.374;2022-12-18T16:11:21;6.40;;;3.83;;
45692;SDS011;31402;44.752;-0.374;2022-12-18T16:16:44;5.40;;;3.60;;
45692;SDS011;31402;44.752;-0.374;2022-12-18T16:19:11;5.23;;;3.67;;
45692;SDS011;31402;44.752;-0.374;2022-12-18T16:21:37;4.80;;;3.00;;
45692;SDS011;31402;44.752;-0.374;2022-12-18T16:24:03;5.40;;;3.17;;
45692;SDS011;31402;44.752;-0.374;2022-12-18T16:26:29;5.33;;;3.20;;
45692;SDS011;31402;44.752;-0.374;2022-12-18T16:28:55;4.70;;;3.23;;
45692;SDS011;31402;44.752;-0.374;2022-12-18T16:31:21;4.97;;;3.10;;
45692;SDS011;31402;44.752;-0.374;2022-12-18T16:33:47;4.03;;;2.90;;
45692;SDS011;31402;44.752;-0.374;2022-12-18T16:36:13;4.93;;;2.73;;
45692;SDS011;31402;44.752;-0.374;2022-12-18T16:38:39;16.73;;;8.83;;
45692;SDS011;31402;44.752;-0.374;2022-12-18T16:41:19;11.63;;;5.70;;
45692;SDS011;31402;44.752;-0.374;2022-12-18T16:43:57;5.80;;;2.97;;
45692;SDS011;31402;44.752;-0.374;2022-12-18T16:46:26;8.60;;;5.27;;